sensor_id;sensor_type;location;lat;lon;timestamp;pressure;altitude;pressure_sealevel;temperature;humidity
42705;BME280;28342;42.594;23.414;2023-05-22T00:00:45;94276.03;;;12.90;90.55
42705;BME280;28342;42.594;23.414;2023-05-22T00:03:25;94288.78;;;13.17;88.84
42705;BME280;28342;42.594;23.414;2023-05-22T00:06:28;94294.75;;;13.14;90.90
42705;BME280;28342;42.594;23.414;2023-05-22T00:09:11;94264.19;;;12.99;90.25
42705;BME280;28342;42.594;23.414;2023-05-22T00:12:22;94273.94;;;12.95;91.74
42705;BME280;28342;42.594;23.414;2023-05-22T00:15:22;94290.53;;;13.13;89.95
42705;BME280;28342;42.594;23.414;2023-05-22T00:18:13;94265.63;;;12.97;88.94
42705;BME280;28342;42.594;23.414;2023-05-22T00:20:58;94273.91;;;13.16;87.50
42705;BME280;28342;42.594;23.414;2023-05-22T00:23:59;94288.19;;;13.32;88.98
42705;BME280;28342;42.594;23.414;2023-05-22T00:26:32;94295.66;;;13.39;88.85
42705;BME280;28342;42.594;23.414;2023-05-22T00:29:04;94264.31;;;13.24;89.50
42705;BME280;28342;42.594;23.414;2023-05-22T00:31:44;94265.91;;;13.37;86.56
42705;BME280;28342;42.594;23.414;2023-05-22T00:34:44;94289.81;;;13.58;85.94
42705;BME280;28342;42.594;23.414;2023-05-22T00:37:21;94271.56;;;13.48;87.45
42705;BME280;28342;42.594;23.414;2023-05-22T00:40:07;94292.13;;;13.59;88.04
42705;BME280;28342;42.594;23.414;2023-05-22T00:43:02;94283.78;;;13.36;90.01
42705;BME280;28342;42.594;23.414;2023-05-22T00:45:36;94265.47;;;13.35;88.66
42705;BME280;28342;42.594;23.414;2023-05-22T00:48:09;94247.16;;;13.33;89.02
42705;BME280;28342;42.594;23.414;2023-05-22T00:50:51;94278.25;;;13.54;89.21
42705;BME280;28342;42.594;23.414;2023-05-22T00:53:42;94261.53;;;13.32;89.56
42705;BME280;28342;42.594;23.414;2023-05-22T00:56:12;94274.22;;;13.48;89.64
42705;BME280;28342;42.594;23.414;2023-05-22T00:58:43;94258.31;;;13.27;88.44
42705;BME280;28342;42.594;23.414;2023-05-22T01:01:22;94280.59;;;13.55;86.81
42705;BME280;28342;42.594;23.414;2023-05-22T01:04:59;94285.50;;;13.65;87.46
42705;BME280;28342;42.594;23.414;2023-05-22T01:07:56;94252.66;;;13.28;89.11
42705;BME280;28342;42.594;23.414;2023-05-22T01:10:42;94286.69;;;13.56;89.03
42705;BME280;28342;42.594;23.414;2023-05-22T01:16:40;94270.94;;;13.51;88.54
42705;BME280;28342;42.594;23.414;2023-05-22T01:25:47;94283.06;;;13.27;89.67
42705;BME280;28342;42.594;23.414;2023-05-22T01:31:29;94254.16;;;13.17;88.55
42705;BME280;28342;42.594;23.414;2023-05-22T01:34:35;94282.22;;;13.35;88.60
42705;BME280;28342;42.594;23.414;2023-05-22T01:37:06;94259.47;;;13.17;89.03
42705;BME280;28342;42.594;23.414;2023-05-22T01:39:42;94282.22;;;13.35;88.97
42705;BME280;28342;42.594;23.414;2023-05-22T01:42:14;94273.22;;;13.40;88.98
42705;BME280;28342;42.594;23.414;2023-05-22T01:44:44;94236.91;;;13.23;88.11
42705;BME280;28342;42.594;23.414;2023-05-22T01:47:16;94265.78;;;13.33;87.75
42705;BME280;28342;42.594;23.414;2023-05-22T01:49:49;94245.72;;;13.15;89.29
42705;BME280;28342;42.594;23.414;2023-05-22T01:56:13;94270.78;;;13.14;89.62
42705;BME280;28342;42.594;23.414;2023-05-22T01:58:51;94250.56;;;13.01;88.95
42705;BME280;28342;42.594;23.414;2023-05-22T02:01:54;94270.13;;;13.17;88.03
42705;BME280;28342;42.594;23.414;2023-05-22T02:04:20;94231.69;;;12.94;88.72
42705;BME280;28342;42.594;23.414;2023-05-22T02:07:07;94251.66;;;13.00;88.60
42705;BME280;28342;42.594;23.414;2023-05-22T02:09:38;94251.97;;;12.98;88.46
42705;BME280;28342;42.594;23.414;2023-05-22T02:12:28;94263.84;;;12.89;89.50
42705;BME280;28342;42.594;23.414;2023-05-22T02:14:57;94251.91;;;12.74;89.30
42705;BME280;28342;42.594;23.414;2023-05-22T02:17:38;94258.38;;;12.64;90.12
42705;BME280;28342;42.594;23.414;2023-05-22T02:20:12;94264.44;;;12.73;90.09
42705;BME280;28342;42.594;23.414;2023-05-22T02:22:52;94275.31;;;12.80;89.78
42705;BME280;28342;42.594;23.414;2023-05-22T02:25:21;94277.09;;;12.76;89.79
42705;BME280;28342;42.594;23.414;2023-05-22T02:27:59;94264.16;;;12.66;89.70
42705;BME280;28342;42.594;23.414;2023-05-22T02:30:25;94279.31;;;12.74;89.02
42705;BME280;28342;42.594;23.414;2023-05-22T02:32:57;94279.03;;;12.67;89.36
42705;BME280;28342;42.594;23.414;2023-05-22T02:35:44;94259.44;;;12.51;89.07
42705;BME280;28342;42.594;23.414;2023-05-22T02:38:21;94272.94;;;12.46;89.52
42705;BME280;28342;42.594;23.414;2023-05-22T02:44:08;94279.69;;;12.43;91.09
42705;BME280;28342;42.594;23.414;2023-05-22T02:49:49;94253.06;;;12.22;91.07
42705;BME280;28342;42.594;23.414;2023-05-22T02:52:53;94264.63;;;12.26;91.26
42705;BME280;28342;42.594;23.414;2023-05-22T02:55:54;94272.78;;;12.21;92.03
42705;BME280;28342;42.594;23.414;2023-05-22T02:59:00;94272.91;;;12.25;90.95
42705;BME280;28342;42.594;23.414;2023-05-22T03:01:43;94252.34;;;12.13;90.92
42705;BME280;28342;42.594;23.414;2023-05-22T03:04:42;94268.56;;;12.20;91.05
42705;BME280;28342;42.594;23.414;2023-05-22T03:07:44;94266.66;;;12.21;90.77
42705;BME280;28342;42.594;23.414;2023-05-22T03:10:57;94246.28;;;12.04;90.97
42705;BME280;28342;42.594;23.414;2023-05-22T03:14:20;94265.53;;;12.01;91.39
42705;BME280;28342;42.594;23.414;2023-05-22T03:17:07;94247.84;;;12.05;90.75
42705;BME280;28342;42.594;23.414;2023-05-22T03:19:40;94267.84;;;12.11;90.89
42705;BME280;28342;42.594;23.414;2023-05-22T03:22:16;94270.03;;;12.09;90.55
42705;BME280;28342;42.594;23.414;2023-05-22T03:24:45;94264.09;;;12.12;90.95
42705;BME280;28342;42.594;23.414;2023-05-22T03:30:47;94272.22;;;12.07;92.32
42705;BME280;28342;42.594;23.414;2023-05-22T03:33:13;94261.19;;;11.96;92.45
42705;BME280;28342;42.594;23.414;2023-05-22T03:35:42;94271.00;;;12.05;92.73
42705;BME280;28342;42.594;23.414;2023-05-22T03:38:32;94280.84;;;12.04;92.90
42705;BME280;28342;42.594;23.414;2023-05-22T03:41:04;94267.66;;;11.87;91.62
42705;BME280;28342;42.594;23.414;2023-05-22T03:43:56;94273.94;;;11.74;92.83
42705;BME280;28342;42.594;23.414;2023-05-22T03:46:27;94262.25;;;11.66;93.38
42705;BME280;28342;42.594;23.414;2023-05-22T03:49:59;94282.81;;;11.78;92.90
42705;BME280;28342;42.594;23.414;2023-05-22T03:53:15;94262.38;;;11.70;92.22
42705;BME280;28342;42.594;23.414;2023-05-22T03:55:47;94260.97;;;11.72;91.68
42705;BME280;28342;42.594;23.414;2023-05-22T03:58:13;94269.84;;;11.85;92.03
42705;BME280;28342;42.594;23.414;2023-05-22T04:00:39;94256.09;;;11.83;92.96
42705;BME280;28342;42.594;23.414;2023-05-22T04:03:05;94285.06;;;12.05;92.92
42705;BME280;28342;42.594;23.414;2023-05-22T04:05:50;94271.06;;;11.96;93.82
42705;BME280;28342;42.594;23.414;2023-05-22T04:08:35;94285.06;;;12.05;92.73
42705;BME280;28342;42.594;23.414;2023-05-22T04:11:37;94278.38;;;12.29;91.31
42705;BME280;28342;42.594;23.414;2023-05-22T04:14:10;94268.88;;;12.19;91.79
42705;BME280;28342;42.594;23.414;2023-05-22T04:16:46;94262.28;;;12.46;92.46
42705;BME280;28342;42.594;23.414;2023-05-22T04:19:21;94254.84;;;12.60;92.49
42705;BME280;28342;42.594;23.414;2023-05-22T04:22:05;94285.13;;;12.89;91.90
42705;BME280;28342;42.594;23.414;2023-05-22T04:24:41;94283.88;;;13.07;90.90
42705;BME280;28342;42.594;23.414;2023-05-22T04:27:22;94282.88;;;13.11;90.55
42705;BME280;28342;42.594;23.414;2023-05-22T04:29:52;94281.88;;;13.16;88.21
42705;BME280;28342;42.594;23.414;2023-05-22T04:32:27;94259.25;;;13.10;87.77
42705;BME280;28342;42.594;23.414;2023-05-22T04:35:07;94291.81;;;13.49;87.42
42705;BME280;28342;42.594;23.414;2023-05-22T04:38:10;94296.72;;;13.71;88.41
42705;BME280;28342;42.594;23.414;2023-05-22T04:44:01;94273.41;;;13.92;86.23
42705;BME280;28342;42.594;23.414;2023-05-22T04:46:32;94294.53;;;14.10;87.31
42705;BME280;28342;42.594;23.414;2023-05-22T04:49:23;94295.84;;;14.40;85.08
42705;BME280;28342;42.594;23.414;2023-05-22T04:52:30;94254.03;;;14.32;82.31
42705;BME280;28342;42.594;23.414;2023-05-22T04:55:08;94264.25;;;14.42;81.93
42705;BME280;28342;42.594;23.414;2023-05-22T04:57:41;94278.34;;;14.67;82.53
42705;BME280;28342;42.594;23.414;2023-05-22T05:00:18;94270.66;;;14.78;81.47
42705;BME280;28342;42.594;23.414;2023-05-22T05:02:44;94281.25;;;15.02;80.02
42705;BME280;28342;42.594;23.414;2023-05-22T05:05:41;94283.28;;;15.21;82.45
42705;BME280;28342;42.594;23.414;2023-05-22T05:08:36;94294.53;;;15.42;79.85
42705;BME280;28342;42.594;23.414;2023-05-22T05:17:31;94289.88;;;15.39;77.98
42705;BME280;28342;42.594;23.414;2023-05-22T05:20:28;94276.91;;;15.25;79.92
42705;BME280;28342;42.594;23.414;2023-05-22T05:23:07;94269.75;;;15.30;78.52
42705;BME280;28342;42.594;23.414;2023-05-22T05:26:29;94286.88;;;15.41;76.99
42705;BME280;28342;42.594;23.414;2023-05-22T05:33:18;94285.88;;;15.61;77.82
42705;BME280;28342;42.594;23.414;2023-05-22T05:36:30;94295.28;;;15.71;76.88
42705;BME280;28342;42.594;23.414;2023-05-22T05:43:07;94289.69;;;15.92;76.99
42705;BME280;28342;42.594;23.414;2023-05-22T05:46:22;94301.44;;;16.03;79.81
42705;BME280;28342;42.594;23.414;2023-05-22T05:49:48;94299.78;;;16.14;79.67
42705;BME280;28342;42.594;23.414;2023-05-22T06:04:02;94293.06;;;16.71;72.44
42705;BME280;28342;42.594;23.414;2023-05-22T06:19:57;94305.78;;;17.32;65.48
42705;BME280;28342;42.594;23.414;2023-05-22T06:23:11;94305.34;;;17.49;66.33
42705;BME280;28342;42.594;23.414;2023-05-22T06:26:27;94307.16;;;17.65;68.03
42705;BME280;28342;42.594;23.414;2023-05-22T06:29:18;94279.47;;;17.60;65.08
42705;BME280;28342;42.594;23.414;2023-05-22T06:35:48;94295.56;;;18.03;63.65
42705;BME280;28342;42.594;23.414;2023-05-22T06:42:42;94292.25;;;18.36;65.04
42705;BME280;28342;42.594;23.414;2023-05-22T06:45:08;94307.13;;;18.56;65.92
42705;BME280;28342;42.594;23.414;2023-05-22T06:47:33;94314.09;;;18.61;65.01
42705;BME280;28342;42.594;23.414;2023-05-22T06:50:14;94306.13;;;18.64;63.17
42705;BME280;28342;42.594;23.414;2023-05-22T06:52:42;94309.31;;;18.73;59.21
42705;BME280;28342;42.594;23.414;2023-05-22T06:55:11;94299.75;;;18.76;58.20
42705;BME280;28342;42.594;23.414;2023-05-22T06:57:40;94287.13;;;18.80;59.19
42705;BME280;28342;42.594;23.414;2023-05-22T07:00:07;94299.44;;;19.11;56.08
42705;BME280;28342;42.594;23.414;2023-05-22T07:02:34;94303.94;;;19.33;57.72
42705;BME280;28342;42.594;23.414;2023-05-22T07:04:59;94307.88;;;19.43;55.87
42705;BME280;28342;42.594;23.414;2023-05-22T07:07:24;94295.63;;;19.46;56.74
42705;BME280;28342;42.594;23.414;2023-05-22T07:09:50;94293.34;;;19.48;57.60
42705;BME280;28342;42.594;23.414;2023-05-22T07:12:15;94295.53;;;19.72;57.20
42705;BME280;28342;42.594;23.414;2023-05-22T07:14:41;94292.84;;;20.16;55.60
42705;BME280;28342;42.594;23.414;2023-05-22T07:17:06;94294.00;;;20.67;54.02
42705;BME280;28342;42.594;23.414;2023-05-22T07:19:32;94275.66;;;20.90;54.82
42705;BME280;28342;42.594;23.414;2023-05-22T07:21:59;94294.00;;;21.36;55.07
42705;BME280;28342;42.594;23.414;2023-05-22T07:24:25;94290.56;;;21.53;51.81
42705;BME280;28342;42.594;23.414;2023-05-22T07:26:50;94302.97;;;21.83;52.48
42705;BME280;28342;42.594;23.414;2023-05-22T07:29:16;94307.63;;;21.93;48.22
42705;BME280;28342;42.594;23.414;2023-05-22T07:31:42;94304.22;;;22.24;50.08
42705;BME280;28342;42.594;23.414;2023-05-22T07:34:07;94302.28;;;22.25;50.37
42705;BME280;28342;42.594;23.414;2023-05-22T07:36:33;94294.19;;;22.07;47.16
42705;BME280;28342;42.594;23.414;2023-05-22T07:39:02;94279.03;;;21.63;42.49
42705;BME280;28342;42.594;23.414;2023-05-22T07:41:29;94277.50;;;21.69;46.99
42705;BME280;28342;42.594;23.414;2023-05-22T07:43:56;94292.22;;;21.93;43.98
42705;BME280;28342;42.594;23.414;2023-05-22T07:46:23;94256.69;;;21.81;47.18
42705;BME280;28342;42.594;23.414;2023-05-22T07:48:51;94278.34;;;22.16;45.20
42705;BME280;28342;42.594;23.414;2023-05-22T07:51:17;94294.56;;;22.41;44.47
42705;BME280;28342;42.594;23.414;2023-05-22T07:53:43;94266.75;;;22.48;45.61
42705;BME280;28342;42.594;23.414;2023-05-22T07:56:08;94295.31;;;22.63;44.82
42705;BME280;28342;42.594;23.414;2023-05-22T07:58:34;94299.97;;;22.45;43.62
42705;BME280;28342;42.594;23.414;2023-05-22T08:01:12;94301.09;;;22.51;43.35
42705;BME280;28342;42.594;23.414;2023-05-22T08:03:39;94300.72;;;22.59;42.44
42705;BME280;28342;42.594;23.414;2023-05-22T08:06:05;94297.97;;;23.02;42.67
42705;BME280;28342;42.594;23.414;2023-05-22T08:08:31;94303.72;;;23.08;45.85
42705;BME280;28342;42.594;23.414;2023-05-22T08:14:10;94277.00;;;23.24;48.05
42705;BME280;28342;42.594;23.414;2023-05-22T08:16:36;94280.31;;;23.56;45.94
42705;BME280;28342;42.594;23.414;2023-05-22T08:19:02;94277.56;;;23.71;42.07
42705;BME280;28342;42.594;23.414;2023-05-22T08:21:33;94266.59;;;23.96;42.01
42705;BME280;28342;42.594;23.414;2023-05-22T08:24:06;94293.84;;;24.26;44.23
42705;BME280;28342;42.594;23.414;2023-05-22T08:26:33;94290.81;;;24.21;42.61
42705;BME280;28342;42.594;23.414;2023-05-22T08:29:08;94276.28;;;23.93;42.39
42705;BME280;28342;42.594;23.414;2023-05-22T08:31:40;94293.00;;;23.81;43.77
42705;BME280;28342;42.594;23.414;2023-05-22T08:34:06;94287.22;;;23.79;43.54
42705;BME280;28342;42.594;23.414;2023-05-22T08:37:00;94283.25;;;23.94;42.12
42705;BME280;28342;42.594;23.414;2023-05-22T08:39:48;94291.03;;;23.85;43.25
42705;BME280;28342;42.594;23.414;2023-05-22T08:43:10;94293.22;;;23.35;44.55
42705;BME280;28342;42.594;23.414;2023-05-22T08:45:37;94295.22;;;23.16;42.40
42705;BME280;28342;42.594;23.414;2023-05-22T08:48:36;94284.72;;;23.33;42.39
42705;BME280;28342;42.594;23.414;2023-05-22T09:01:37;94276.88;;;23.60;41.59
42705;BME280;28342;42.594;23.414;2023-05-22T09:04:08;94247.38;;;23.72;42.75
42705;BME280;28342;42.594;23.414;2023-05-22T09:06:54;94289.31;;;24.12;37.34
42705;BME280;28342;42.594;23.414;2023-05-22T09:09:35;94268.66;;;23.74;39.63
42705;BME280;28342;42.594;23.414;2023-05-22T09:12:30;94258.47;;;23.19;35.26
42705;BME280;28342;42.594;23.414;2023-05-22T09:15:39;94292.78;;;23.47;38.09
42705;BME280;28342;42.594;23.414;2023-05-22T09:18:40;94273.44;;;23.41;37.20
42705;BME280;28342;42.594;23.414;2023-05-22T09:21:26;94255.00;;;23.18;38.21
42705;BME280;28342;42.594;23.414;2023-05-22T09:24:07;94262.72;;;23.20;38.89
42705;BME280;28342;42.594;23.414;2023-05-22T09:26:44;94290.16;;;23.29;37.91
42705;BME280;28342;42.594;23.414;2023-05-22T09:29:18;94248.50;;;22.94;37.16
42705;BME280;28342;42.594;23.414;2023-05-22T09:31:45;94269.72;;;23.14;38.11
42705;BME280;28342;42.594;23.414;2023-05-22T09:34:14;94283.56;;;23.30;37.65
42705;BME280;28342;42.594;23.414;2023-05-22T09:36:46;94239.19;;;23.06;39.98
42705;BME280;28342;42.594;23.414;2023-05-22T09:39:14;94253.53;;;23.00;40.53
42705;BME280;28342;42.594;23.414;2023-05-22T09:41:49;94277.06;;;23.06;38.68
42705;BME280;28342;42.594;23.414;2023-05-22T09:44:15;94248.53;;;22.80;40.03
42705;BME280;28342;42.594;23.414;2023-05-22T09:46:49;94270.59;;;22.57;38.48
42705;BME280;28342;42.594;23.414;2023-05-22T09:49:16;94274.47;;;22.60;39.40
42705;BME280;28342;42.594;23.414;2023-05-22T09:51:47;94242.06;;;22.28;42.13
42705;BME280;28342;42.594;23.414;2023-05-22T09:54:21;94250.56;;;22.19;39.87
42705;BME280;28342;42.594;23.414;2023-05-22T09:56:53;94262.91;;;22.17;38.43
42705;BME280;28342;42.594;23.414;2023-05-22T09:59:29;94277.97;;;22.25;39.51
42705;BME280;28342;42.594;23.414;2023-05-22T10:01:58;94251.72;;;22.22;39.37
42705;BME280;28342;42.594;23.414;2023-05-22T10:04:32;94259.03;;;22.46;40.01
42705;BME280;28342;42.594;23.414;2023-05-22T10:07:01;94280.59;;;22.78;40.59
42705;BME280;28342;42.594;23.414;2023-05-22T10:09:30;94268.25;;;22.77;39.63
42705;BME280;28342;42.594;23.414;2023-05-22T10:12:03;94244.31;;;22.72;38.15
42705;BME280;28342;42.594;23.414;2023-05-22T10:14:33;94240.44;;;22.73;41.42
42705;BME280;28342;42.594;23.414;2023-05-22T10:17:02;94264.31;;;23.14;45.13
42705;BME280;28342;42.594;23.414;2023-05-22T10:19:32;94247.25;;;23.24;41.06
42705;BME280;28342;42.594;23.414;2023-05-22T10:22:06;94248.81;;;23.21;39.73
42705;BME280;28342;42.594;23.414;2023-05-22T10:24:44;94267.38;;;23.16;40.99
42705;BME280;28342;42.594;23.414;2023-05-22T10:27:15;94263.47;;;23.31;41.12
42705;BME280;28342;42.594;23.414;2023-05-22T10:29:50;94270.47;;;23.11;41.87
42705;BME280;28342;42.594;23.414;2023-05-22T10:32:47;94258.56;;;22.90;44.69
42705;BME280;28342;42.594;23.414;2023-05-22T10:35:44;94277.13;;;22.88;44.57
42705;BME280;28342;42.594;23.414;2023-05-22T10:40:49;94294.53;;;22.20;43.84
42705;BME280;28342;42.594;23.414;2023-05-22T10:43:15;94287.53;;;21.72;43.80
42705;BME280;28342;42.594;23.414;2023-05-22T10:45:43;94269.00;;;21.74;46.14
42705;BME280;28342;42.594;23.414;2023-05-22T10:48:10;94285.22;;;21.74;46.79
42705;BME280;28342;42.594;23.414;2023-05-22T10:50:37;94268.22;;;21.53;43.50
42705;BME280;28342;42.594;23.414;2023-05-22T10:53:19;94279.03;;;21.70;46.35
42705;BME280;28342;42.594;23.414;2023-05-22T10:55:47;94274.44;;;21.96;46.62
42705;BME280;28342;42.594;23.414;2023-05-22T10:58:17;94267.56;;;22.09;46.44
42705;BME280;28342;42.594;23.414;2023-05-22T11:00:43;94262.88;;;21.85;44.76
42705;BME280;28342;42.594;23.414;2023-05-22T11:03:09;94252.78;;;21.53;45.17
42705;BME280;28342;42.594;23.414;2023-05-22T11:05:36;94251.25;;;21.52;49.64
42705;BME280;28342;42.594;23.414;2023-05-22T11:08:33;94273.22;;;21.58;48.30
42705;BME280;28342;42.594;23.414;2023-05-22T11:11:09;94280.19;;;21.62;51.40
42705;BME280;28342;42.594;23.414;2023-05-22T11:13:37;94286.69;;;21.43;49.41
42705;BME280;28342;42.594;23.414;2023-05-22T11:16:07;94295.06;;;21.21;49.75
42705;BME280;28342;42.594;23.414;2023-05-22T11:18:36;94281.91;;;21.05;52.80
42705;BME280;28342;42.594;23.414;2023-05-22T11:21:08;94273.44;;;21.13;56.95
42705;BME280;28342;42.594;23.414;2023-05-22T11:30:39;94326.91;;;19.94;52.79
42705;BME280;28342;42.594;23.414;2023-05-22T11:34:21;94329.84;;;19.49;54.72
42705;BME280;28342;42.594;23.414;2023-05-22T11:37:41;94328.03;;;19.26;54.97
42705;BME280;28342;42.594;23.414;2023-05-22T11:41:00;94300.34;;;19.22;56.29
42705;BME280;28342;42.594;23.414;2023-05-22T11:43:29;94339.75;;;19.41;55.21
42705;BME280;28342;42.594;23.414;2023-05-22T11:46:22;94320.88;;;19.04;57.21
42705;BME280;28342;42.594;23.414;2023-05-22T11:48:55;94318.19;;;19.04;61.24
42705;BME280;28342;42.594;23.414;2023-05-22T11:51:29;94302.59;;;18.87;62.13
42705;BME280;28342;42.594;23.414;2023-05-22T11:54:12;94326.63;;;18.76;66.02
42705;BME280;28342;42.594;23.414;2023-05-22T11:57:06;94336.69;;;18.33;65.26
42705;BME280;28342;42.594;23.414;2023-05-22T11:59:50;94330.16;;;17.85;69.77
42705;BME280;28342;42.594;23.414;2023-05-22T12:02:25;94339.75;;;17.86;72.74
42705;BME280;28342;42.594;23.414;2023-05-22T12:04:56;94340.63;;;17.51;71.90
42705;BME280;28342;42.594;23.414;2023-05-22T12:07:22;94319.34;;;17.20;73.70
42705;BME280;28342;42.594;23.414;2023-05-22T12:09:49;94339.78;;;17.28;75.47
42705;BME280;28342;42.594;23.414;2023-05-22T12:12:41;94346.84;;;17.17;76.30
42705;BME280;28342;42.594;23.414;2023-05-22T12:15:21;94330.59;;;16.90;75.31
42705;BME280;28342;42.594;23.414;2023-05-22T12:17:54;94312.25;;;17.12;75.47
42705;BME280;28342;42.594;23.414;2023-05-22T12:20:44;94340.91;;;17.27;78.57
42705;BME280;28342;42.594;23.414;2023-05-22T12:23:23;94330.34;;;17.34;81.35
42705;BME280;28342;42.594;23.414;2023-05-22T12:26:12;94336.50;;;17.57;77.64
42705;BME280;28342;42.594;23.414;2023-05-22T12:29:07;94317.75;;;17.57;80.24
42705;BME280;28342;42.594;23.414;2023-05-22T12:35:50;94293.03;;;17.68;80.13
42705;BME280;28342;42.594;23.414;2023-05-22T12:38:34;94297.84;;;17.78;79.47
42705;BME280;28342;42.594;23.414;2023-05-22T12:41:37;94293.53;;;17.96;77.94
42705;BME280;28342;42.594;23.414;2023-05-22T12:44:13;94288.81;;;18.12;76.03
42705;BME280;28342;42.594;23.414;2023-05-22T12:46:47;94304.25;;;18.42;74.70
42705;BME280;28342;42.594;23.414;2023-05-22T12:49:18;94305.81;;;18.69;73.04
42705;BME280;28342;42.594;23.414;2023-05-22T12:52:33;94279.19;;;18.87;73.20
42705;BME280;28342;42.594;23.414;2023-05-22T12:55:09;94284.84;;;19.12;71.51
42705;BME280;28342;42.594;23.414;2023-05-22T12:57:43;94294.31;;;19.32;70.80
42705;BME280;28342;42.594;23.414;2023-05-22T13:00:13;94297.41;;;19.34;70.79
42705;BME280;28342;42.594;23.414;2023-05-22T13:02:40;94285.63;;;19.13;68.39
42705;BME280;28342;42.594;23.414;2023-05-22T13:09:12;94280.00;;;19.25;67.27
42705;BME280;28342;42.594;23.414;2023-05-22T13:30:52;94254.94;;;20.39;57.50
42705;BME280;28342;42.594;23.414;2023-05-22T13:41:24;94248.38;;;21.09;55.75
42705;BME280;28342;42.594;23.414;2023-05-22T14:05:22;94225.03;;;21.56;51.80
42705;BME280;28342;42.594;23.414;2023-05-22T14:08:22;94238.16;;;21.68;55.37
42705;BME280;28342;42.594;23.414;2023-05-22T14:21:27;94221.50;;;21.27;53.98
42705;BME280;28342;42.594;23.414;2023-05-22T14:24:08;94218.81;;;21.31;54.03
42705;BME280;28342;42.594;23.414;2023-05-22T14:26:34;94236.56;;;21.32;53.17
42705;BME280;28342;42.594;23.414;2023-05-22T14:29:01;94208.78;;;21.28;54.26
42705;BME280;28342;42.594;23.414;2023-05-22T14:31:45;94201.44;;;21.25;54.38
42705;BME280;28342;42.594;23.414;2023-05-22T14:34:32;94236.97;;;21.48;54.36
42705;BME280;28342;42.594;23.414;2023-05-22T14:37:42;94179.47;;;21.19;55.30
42705;BME280;28342;42.594;23.414;2023-05-22T14:40:09;94204.94;;;21.29;60.95
42705;BME280;28342;42.594;23.414;2023-05-22T14:42:36;94214.97;;;21.32;59.42
42705;BME280;28342;42.594;23.414;2023-05-22T14:45:10;94214.97;;;21.42;57.43
42705;BME280;28342;42.594;23.414;2023-05-22T14:47:46;94187.94;;;21.17;54.28
42705;BME280;28342;42.594;23.414;2023-05-22T14:50:13;94212.94;;;21.11;53.77
42705;BME280;28342;42.594;23.414;2023-05-22T14:52:45;94185.13;;;20.85;55.58
42705;BME280;28342;42.594;23.414;2023-05-22T14:55:21;94205.56;;;20.90;56.51
42705;BME280;28342;42.594;23.414;2023-05-22T15:05:31;94247.53;;;20.29;58.53
42705;BME280;28342;42.594;23.414;2023-05-22T15:25:56;94285.03;;;19.60;62.11
42705;BME280;28342;42.594;23.414;2023-05-22T15:35:49;94278.84;;;19.22;61.74
42705;BME280;28342;42.594;23.414;2023-05-22T16:13:31;94280.09;;;17.50;69.36
42705;BME280;28342;42.594;23.414;2023-05-22T16:16:59;94241.25;;;17.21;71.45
42705;BME280;28342;42.594;23.414;2023-05-22T16:20:13;94255.78;;;16.82;71.96
42705;BME280;28342;42.594;23.414;2023-05-22T17:19:17;94326.34;;;16.23;80.44
42705;BME280;28342;42.594;23.414;2023-05-22T17:39:02;94334.75;;;16.05;81.64
42705;BME280;28342;42.594;23.414;2023-05-22T18:25:04;94384.34;;;14.79;89.10
42705;BME280;28342;42.594;23.414;2023-05-22T19:37:49;94459.50;;;14.32;92.72
42705;BME280;28342;42.594;23.414;2023-05-22T19:44:04;94416.94;;;13.57;94.68
42705;BME280;28342;42.594;23.414;2023-05-22T20:07:18;94449.63;;;13.99;94.49
42705;BME280;28342;42.594;23.414;2023-05-22T20:17:32;94439.09;;;14.03;95.15
42705;BME280;28342;42.594;23.414;2023-05-22T20:26:49;94432.78;;;14.20;94.10
42705;BME280;28342;42.594;23.414;2023-05-22T20:33:12;94432.66;;;14.16;95.40
42705;BME280;28342;42.594;23.414;2023-05-22T20:50:11;94434.72;;;13.86;95.26
42705;BME280;28342;42.594;23.414;2023-05-22T20:57:06;94439.03;;;13.79;99.14
42705;BME280;28342;42.594;23.414;2023-05-22T21:56:11;94422.69;;;13.26;100.00
42705;BME280;28342;42.594;23.414;2023-05-22T21:59:48;94426.00;;;13.23;100.00
42705;BME280;28342;42.594;23.414;2023-05-22T22:03:16;94415.94;;;13.29;98.73
42705;BME280;28342;42.594;23.414;2023-05-22T22:10:16;94424.00;;;13.20;97.80
42705;BME280;28342;42.594;23.414;2023-05-22T22:34:31;94440.94;;;12.86;95.46
42705;BME280;28342;42.594;23.414;2023-05-22T23:02:17;94433.91;;;12.52;93.79
42705;BME280;28342;42.594;23.414;2023-05-22T23:09:07;94433.81;;;12.40;94.29
42705;BME280;28342;42.594;23.414;2023-05-22T23:52:24;94422.44;;;11.66;97.58
